createdAt,value
2019-05-10T00:01:04.252Z,77.51
2019-05-10T00:03:52.794Z,77.70
2019-05-10T00:06:41.541Z,77.68
2019-05-10T00:09:11.443Z,77.90
2019-05-10T00:11:43.798Z,77.90
2019-05-10T00:14:32.332Z,77.86
2019-05-10T00:17:04.747Z,77.67
2019-05-10T00:19:35.376Z,77.76
2019-05-10T00:22:05.803Z,77.64
2019-05-10T00:24:36.170Z,77.42
2019-05-10T00:27:06.613Z,77.37
2019-05-10T00:29:37.245Z,77.10
2019-05-10T00:32:07.870Z,77.53
2019-05-10T00:34:41.423Z,77.82
2019-05-10T00:37:12.891Z,77.45
2019-05-10T00:39:43.358Z,77.88
2019-05-10T00:42:14.913Z,77.88
2019-05-10T00:44:45.436Z,77.69
2019-05-10T00:47:16.943Z,77.64
2019-05-10T00:49:47.415Z,77.85
2019-05-10T00:52:17.688Z,78.29
2019-05-10T00:54:48.274Z,79.47
2019-05-10T00:57:18.900Z,80.03
2019-05-10T00:59:49.471Z,80.58
2019-05-10T01:02:20.135Z,81.31
2019-05-10T01:04:50.522Z,81.47
2019-05-10T01:07:21.650Z,81.82
2019-05-10T01:09:52.259Z,81.73
2019-05-10T01:12:22.604Z,82.73
2019-05-10T01:14:53.323Z,82.41
2019-05-10T01:17:23.978Z,82.60
2019-05-10T01:19:54.627Z,82.79
2019-05-10T01:22:25.111Z,83.57
2019-05-10T01:24:55.789Z,84.11
2019-05-10T01:27:26.476Z,84.36
2019-05-10T01:29:57.101Z,84.63
2019-05-10T01:32:27.986Z,83.92
2019-05-10T01:34:58.468Z,82.56
2019-05-10T01:37:29.144Z,83.09
2019-05-10T01:39:59.740Z,83.81
2019-05-10T01:42:30.612Z,84.25
2019-05-10T01:45:01.037Z,82.96
2019-05-10T01:47:31.359Z,83.68
2019-05-10T01:50:02.098Z,83.62
2019-05-10T01:52:32.887Z,82.75
2019-05-10T01:55:04.202Z,82.35
2019-05-10T01:57:35.071Z,82.69
2019-05-10T02:00:06.370Z,81.77
2019-05-10T02:02:37.269Z,82.03
2019-05-10T02:05:08.095Z,80.71
2019-05-10T02:07:38.889Z,81.17
2019-05-10T02:10:09.708Z,82.20
2019-05-10T02:12:40.086Z,81.84
2019-05-10T02:15:10.512Z,81.75
2019-05-10T02:17:41.358Z,81.85
2019-05-10T02:20:11.925Z,82.56
2019-05-10T02:22:42.609Z,82.06
2019-05-10T02:25:14.382Z,81.36
2019-05-10T02:27:45.208Z,80.86
2019-05-10T02:30:15.652Z,81.05
2019-05-10T02:32:46.781Z,81.29
2019-05-10T02:35:17.253Z,81.33
2019-05-10T02:37:48.284Z,81.69
2019-05-10T02:40:18.858Z,82.23
2019-05-10T02:42:49.649Z,82.33
2019-05-10T02:45:20.463Z,82.67
2019-05-10T02:47:50.973Z,82.60
2019-05-10T02:50:21.704Z,82.32
2019-05-10T02:52:52.134Z,82.15
2019-05-10T02:55:22.908Z,82.09
2019-05-10T02:57:53.602Z,81.82
2019-05-10T03:00:24.510Z,81.55
2019-05-10T03:02:55.682Z,80.96
2019-05-10T03:05:27.219Z,80.35
2019-05-10T03:07:58.238Z,80.23
2019-05-10T03:10:30.652Z,80.07
2019-05-10T03:13:02.571Z,79.68
2019-05-10T03:15:36.277Z,80.51
2019-05-10T03:18:06.662Z,80.92
2019-05-10T03:20:38.015Z,81.15
2019-05-10T03:23:09.304Z,80.72
2019-05-10T03:25:39.545Z,80.13
2019-05-10T03:28:10.288Z,80.62
2019-05-10T03:30:41.034Z,80.50
2019-05-10T03:33:12.010Z,80.61
2019-05-10T03:35:42.533Z,80.41
2019-05-10T03:38:13.332Z,80.63
2019-05-10T03:40:43.992Z,80.53
2019-05-10T03:43:14.793Z,80.40
2019-05-10T03:45:45.455Z,80.56
2019-05-10T03:48:17.990Z,80.52
2019-05-10T03:50:48.731Z,80.28
2019-05-10T03:53:19.306Z,79.98
2019-05-10T03:55:51.375Z,79.14
2019-05-10T03:58:23.825Z,78.77
2019-05-10T04:00:54.546Z,79.00
2019-05-10T04:03:28.144Z,78.04
2019-05-10T04:05:59.529Z,77.59
2019-05-10T04:08:30.265Z,77.31
2019-05-10T04:11:00.921Z,77.07
2019-05-10T04:13:31.584Z,76.67
2019-05-10T04:16:02.254Z,76.53
2019-05-10T04:18:32.704Z,76.26
2019-05-10T04:21:03.424Z,76.50
2019-05-10T04:23:34.109Z,76.61
2019-05-10T04:26:04.711Z,76.68
2019-05-10T04:28:40.471Z,76.24
2019-05-10T04:31:11.236Z,76.04
2019-05-10T04:33:41.757Z,75.30
2019-05-10T04:36:13.103Z,75.35
2019-05-10T04:38:43.622Z,73.80
2019-05-10T04:41:14.319Z,73.60
2019-05-10T04:43:44.992Z,72.92
2019-05-10T04:46:15.773Z,72.52
2019-05-10T04:48:45.962Z,72.77
2019-05-10T04:51:16.580Z,73.13
2019-05-10T04:53:47.112Z,72.07
2019-05-10T04:56:19.439Z,71.52
2019-05-10T04:58:49.785Z,70.46
2019-05-10T05:01:20.352Z,70.51
2019-05-10T05:03:50.980Z,70.57
2019-05-10T05:06:21.711Z,70.45
2019-05-10T05:08:51.965Z,69.44
2019-05-10T05:11:22.325Z,68.91
2019-05-10T05:13:52.942Z,67.77
2019-05-10T05:16:23.448Z,66.88
2019-05-10T05:18:54.011Z,65.62
2019-05-10T05:21:24.583Z,64.60
2019-05-10T05:23:55.166Z,64.24
2019-05-10T05:26:26.660Z,63.05
2019-05-10T05:28:57.076Z,62.60
2019-05-10T05:31:27.610Z,63.35
2019-05-10T05:33:59.176Z,62.74
2019-05-10T05:36:30.344Z,62.38
2019-05-10T05:39:00.691Z,61.09
2019-05-10T05:41:47.802Z,59.80
2019-05-10T05:44:11.612Z,59.72
2019-05-10T05:46:41.936Z,59.08
2019-05-10T05:49:12.466Z,57.68
2019-05-10T05:51:55.966Z,56.83
2019-05-10T05:54:26.327Z,55.99
2019-05-10T05:56:56.976Z,56.47
2019-05-10T05:59:27.533Z,56.36
2019-05-10T06:02:00.876Z,55.52
2019-05-10T06:04:30.430Z,53.99
2019-05-10T06:07:00.905Z,52.80
2019-05-10T06:09:31.973Z,51.70
2019-05-10T06:12:07.383Z,51.99
2019-05-10T06:14:42.980Z,51.08
2019-05-10T06:17:09.319Z,49.60
2019-05-10T06:19:39.903Z,48.97
2019-05-10T06:22:10.749Z,47.77
2019-05-10T06:24:41.068Z,47.77
2019-05-10T06:27:11.905Z,46.27
2019-05-10T06:29:43.217Z,46.58
2019-05-10T06:32:14.031Z,44.50
2019-05-10T06:34:44.207Z,42.77
2019-05-10T06:37:14.984Z,39.90
2019-05-10T06:39:45.570Z,40.85
2019-05-10T06:42:15.878Z,41.44
2019-05-10T06:44:47.637Z,41.64
2019-05-10T06:47:21.519Z,44.52
2019-05-10T06:49:52.301Z,48.49
2019-05-10T06:52:27.756Z,49.49
2019-05-10T06:54:58.525Z,51.07
2019-05-10T06:57:27.172Z,51.34
2019-05-10T07:00:06.190Z,49.15
2019-05-10T07:02:32.511Z,50.47
2019-05-10T07:05:02.579Z,53.27
2019-05-10T07:07:43.694Z,55.22
2019-05-10T07:10:17.631Z,53.89
2019-05-10T07:12:38.951Z,53.50
2019-05-10T07:15:09.513Z,53.30
2019-05-10T07:17:43.630Z,55.87
2019-05-10T07:20:12.060Z,56.05
2019-05-10T07:22:42.257Z,56.07
2019-05-10T07:25:12.910Z,56.27
2019-05-10T07:27:44.277Z,57.18
2019-05-10T07:30:16.594Z,60.23
2019-05-10T07:32:49.155Z,61.63
2019-05-10T07:35:20.156Z,63.34
2019-05-10T07:37:51.903Z,65.46
2019-05-10T07:40:22.889Z,65.90
2019-05-10T07:42:53.358Z,68.15
2019-05-10T07:45:25.511Z,68.07
2019-05-10T07:47:56.174Z,72.08
2019-05-10T07:50:26.710Z,70.14
2019-05-10T07:52:58.131Z,70.50
2019-05-10T07:55:30.149Z,70.63
2019-05-10T07:58:04.939Z,70.52
2019-05-10T08:00:38.057Z,72.13
2019-05-10T08:03:15.803Z,71.68
2019-05-10T08:05:39.286Z,70.99
2019-05-10T08:08:12.074Z,68.84
2019-05-10T08:10:44.136Z,68.31
2019-05-10T08:13:15.332Z,67.19
2019-05-10T08:15:48.926Z,67.00
2019-05-10T08:18:21.176Z,64.96
2019-05-10T08:20:58.175Z,63.50
2019-05-10T08:23:27.787Z,63.56
2019-05-10T08:25:56.982Z,62.48
2019-05-10T08:28:27.839Z,61.33
2019-05-10T08:31:02.492Z,59.97
2019-05-10T08:33:32.791Z,58.87
2019-05-10T08:36:05.510Z,57.07
2019-05-10T08:38:39.710Z,58.40
2019-05-10T08:41:13.227Z,61.63
2019-05-10T08:43:42.838Z,56.60
2019-05-10T08:46:12.225Z,59.31
2019-05-10T08:48:50.177Z,56.65
2019-05-10T08:51:15.689Z,53.93
2019-05-10T08:53:51.849Z,48.20
2019-05-10T08:56:23.419Z,43.02
2019-05-10T08:58:53.340Z,43.34
2019-05-10T09:01:29.668Z,43.19
2019-05-10T09:04:00.782Z,45.08
2019-05-10T09:06:32.557Z,44.19
2019-05-10T09:09:02.009Z,44.88
2019-05-10T09:11:33.177Z,43.71
2019-05-10T09:14:12.319Z,41.65
2019-05-10T09:16:46.207Z,40.35
2019-05-10T09:19:12.493Z,38.68
2019-05-10T09:21:49.848Z,40.56
2019-05-10T09:24:26.164Z,42.93
2019-05-10T09:26:57.311Z,42.59
2019-05-10T09:29:35.228Z,40.13
2019-05-10T09:32:04.051Z,41.67
2019-05-10T09:34:34.015Z,41.77
2019-05-10T09:37:08.016Z,40.46
2019-05-10T09:39:37.178Z,39.94
2019-05-10T09:42:10.920Z,39.19
2019-05-10T09:44:45.582Z,38.02
2019-05-10T09:47:14.701Z,40.25
2019-05-10T09:49:55.788Z,42.33
2019-05-10T09:52:19.064Z,41.79
2019-05-10T09:54:52.603Z,39.71
2019-05-10T09:57:23.307Z,39.24
2019-05-10T09:59:57.112Z,39.69
2019-05-10T10:02:33.467Z,40.07
2019-05-10T10:04:59.259Z,39.73
2019-05-10T10:07:33.547Z,41.43
2019-05-10T10:10:02.073Z,41.27
2019-05-10T10:12:34.372Z,43.17
2019-05-10T10:15:09.353Z,42.73
2019-05-10T10:17:42.120Z,41.91
2019-05-10T10:20:11.925Z,38.17
2019-05-10T10:22:43.444Z,36.54
2019-05-10T10:25:17.558Z,36.23
2019-05-10T10:27:48.024Z,35.82
2019-05-10T10:30:21.514Z,37.53
2019-05-10T10:32:51.904Z,37.30
2019-05-10T10:35:26.959Z,36.66
2019-05-10T10:38:05.227Z,35.08
2019-05-10T10:40:44.538Z,34.65
2019-05-10T10:43:12.121Z,33.62
2019-05-10T10:45:43.810Z,33.90
2019-05-10T10:48:17.815Z,36.23
2019-05-10T10:50:53.908Z,37.52
2019-05-10T10:53:21.404Z,36.25
2019-05-10T10:55:54.354Z,35.43
2019-05-10T10:58:24.511Z,35.76
2019-05-10T11:00:56.406Z,35.81
2019-05-10T11:03:30.204Z,36.37
2019-05-10T11:05:59.414Z,38.49
2019-05-10T11:08:32.876Z,37.49
2019-05-10T11:11:02.592Z,37.00
2019-05-10T11:13:43.959Z,37.97
2019-05-10T11:16:10.795Z,37.54
2019-05-10T11:18:41.837Z,37.41
2019-05-10T11:21:12.510Z,38.23
2019-05-10T11:23:44.681Z,38.44
2019-05-10T11:26:16.735Z,37.35
2019-05-10T11:28:47.334Z,37.43
2019-05-10T11:31:21.261Z,39.14
2019-05-10T11:33:58.234Z,38.43
2019-05-10T11:36:24.763Z,39.00
2019-05-10T11:38:58.429Z,38.02
2019-05-10T11:41:27.369Z,37.69
2019-05-10T11:44:05.620Z,35.97
2019-05-10T11:46:32.205Z,36.57
2019-05-10T11:49:02.819Z,37.97
2019-05-10T11:51:33.610Z,39.11
2019-05-10T11:54:04.139Z,41.14
2019-05-10T11:56:34.549Z,42.52
2019-05-10T11:59:05.826Z,42.11
2019-05-10T12:01:41.450Z,39.01
2019-05-10T12:04:13.172Z,38.56
2019-05-10T12:06:50.057Z,41.50
2019-05-10T12:09:13.635Z,42.10
2019-05-10T12:14:16.423Z,42.94
2019-05-10T12:16:48.770Z,42.82
2019-05-10T12:19:21.263Z,40.68
2019-05-10T12:21:56.112Z,40.46
2019-05-10T12:24:45.175Z,42.52
2019-05-10T12:26:15.807Z,42.91
2019-05-10T12:27:22.518Z,44.53
2019-05-10T12:29:31.649Z,43.59
2019-05-10T12:32:03.884Z,43.67
2019-05-10T12:34:34.684Z,46.82
2019-05-10T12:37:10.289Z,48.15
2019-05-10T12:39:41.573Z,46.79
2019-05-10T12:42:14.336Z,44.65
2019-05-10T12:44:47.993Z,43.15
2019-05-10T12:47:18.519Z,43.26
2019-05-10T12:49:53.849Z,43.29
2019-05-10T12:52:28.462Z,43.50
2019-05-10T12:54:55.990Z,42.63
2019-05-10T12:57:28.631Z,42.12
2019-05-10T13:00:12.896Z,42.59
2019-05-10T13:02:51.085Z,41.28
2019-05-10T13:05:30.793Z,39.11
2019-05-10T13:08:06.301Z,38.83
2019-05-10T13:10:37.124Z,39.25
2019-05-10T13:13:10.258Z,40.30
2019-05-10T13:15:40.821Z,39.51
2019-05-10T13:18:11.673Z,39.09
2019-05-10T13:20:47.629Z,39.80
2019-05-10T13:23:18.555Z,39.89
2019-05-10T13:25:49.075Z,39.61
2019-05-10T13:28:19.699Z,40.63
2019-05-10T13:30:53.778Z,41.46
2019-05-10T13:33:29.162Z,39.85
2019-05-10T13:36:01.049Z,40.16
2019-05-10T13:38:36.755Z,40.48
2019-05-10T13:41:07.278Z,40.22
2019-05-10T13:43:37.458Z,41.14
2019-05-10T13:46:08.137Z,41.65
2019-05-10T13:48:38.808Z,42.21
2019-05-10T13:51:09.241Z,42.37
2019-05-10T13:53:39.717Z,40.72
2019-05-10T13:56:10.351Z,41.81
2019-05-10T13:58:41.201Z,41.21
2019-05-10T14:01:13.013Z,40.63
2019-05-10T14:03:48.737Z,39.85
2019-05-10T14:06:16.995Z,41.62
2019-05-10T14:08:50.457Z,41.99
2019-05-10T14:11:19.734Z,41.91
2019-05-10T14:13:51.577Z,41.56
2019-05-10T14:16:22.667Z,41.42
2019-05-10T14:18:54.393Z,41.08
2019-05-10T14:21:24.977Z,40.08
2019-05-10T14:23:57.021Z,41.32
2019-05-10T14:26:27.907Z,41.92
2019-05-10T14:28:58.407Z,42.63
2019-05-10T14:31:29.326Z,44.06
2019-05-10T14:34:14.791Z,45.58
2019-05-10T14:36:34.283Z,45.98
2019-05-10T14:39:06.550Z,46.67
2019-05-10T14:41:39.777Z,46.78
2019-05-10T14:44:08.661Z,48.03
2019-05-10T14:46:39.171Z,48.00
2019-05-10T14:49:11.579Z,49.13
2019-05-10T14:51:57.731Z,47.87
2019-05-10T14:54:15.979Z,46.72
2019-05-10T14:56:46.396Z,46.17
2019-05-10T14:59:18.179Z,44.90
2019-05-10T15:01:48.863Z,46.01
2019-05-10T15:04:43.918Z,46.25
2019-05-10T15:06:52.505Z,46.01
2019-05-10T15:09:24.550Z,44.92
2019-05-10T15:11:55.246Z,45.04
2019-05-10T15:14:25.742Z,45.19
2019-05-10T15:16:56.357Z,46.36
2019-05-10T15:19:31.203Z,46.57
2019-05-10T15:22:00.188Z,47.08
2019-05-10T15:24:30.831Z,47.83
2019-05-10T15:27:01.217Z,47.93
2019-05-10T15:29:31.982Z,47.02
2019-05-10T15:32:02.753Z,47.75
2019-05-10T15:34:33.199Z,48.00
2019-05-10T15:37:09.222Z,48.53
2019-05-10T15:39:36.445Z,49.08
2019-05-10T15:42:08.948Z,49.46
2019-05-10T15:44:39.647Z,50.15
2019-05-10T15:47:14.684Z,51.39
2019-05-10T15:49:44.431Z,50.09
2019-05-10T15:52:17.832Z,50.50
2019-05-10T15:54:49.359Z,50.09
2019-05-10T15:57:21.696Z,51.33
2019-05-10T15:59:56.928Z,52.37
2019-05-10T16:02:30.194Z,52.35
2019-05-10T16:05:00.727Z,53.73
2019-05-10T16:07:31.286Z,54.06
2019-05-10T16:10:01.951Z,54.72
2019-05-10T16:12:32.481Z,55.12
2019-05-10T16:15:13.481Z,55.63
2019-05-10T16:17:41.158Z,56.11
2019-05-10T16:20:12.648Z,57.98
2019-05-10T16:22:43.003Z,59.01
2019-05-10T16:25:13.515Z,59.85
2019-05-10T16:27:48.072Z,59.47
2019-05-10T16:30:20.777Z,59.92
2019-05-10T16:32:52.377Z,59.24
2019-05-10T16:35:31.281Z,60.34
2019-05-10T16:37:55.229Z,60.28
2019-05-10T16:40:30.434Z,60.13
2019-05-10T16:43:01.385Z,59.43
2019-05-10T16:45:32.026Z,59.31
2019-05-10T16:48:05.575Z,59.86
2019-05-10T16:50:34.965Z,60.28
2019-05-10T16:53:07.963Z,61.59
2019-05-10T16:55:41.053Z,63.01
2019-05-10T16:58:15.158Z,64.05
2019-05-10T17:00:46.126Z,64.83
2019-05-10T17:03:18.219Z,65.93
2019-05-10T17:05:53.587Z,66.62
2019-05-10T17:08:20.572Z,67.28
2019-05-10T17:10:51.056Z,67.63
2019-05-10T17:13:21.870Z,68.47
2019-05-10T17:15:52.150Z,68.86
2019-05-10T17:18:24.209Z,69.46
2019-05-10T17:20:55.125Z,70.09
2019-05-10T17:23:27.571Z,70.54
2019-05-10T17:25:57.949Z,70.90
2019-05-10T17:28:29.577Z,71.43
2019-05-10T17:31:07.836Z,71.62
2019-05-10T17:33:36.640Z,71.78
2019-05-10T17:36:08.839Z,71.39
2019-05-10T17:38:39.512Z,71.15
2019-05-10T17:41:10.055Z,71.20
2019-05-10T17:43:40.573Z,71.10
2019-05-10T17:46:18.891Z,72.10
2019-05-10T17:48:49.370Z,72.93
2019-05-10T17:51:19.022Z,73.19
2019-05-10T17:53:55.056Z,73.06
2019-05-10T17:56:21.715Z,73.16
2019-05-10T17:58:54.696Z,73.23
2019-05-10T18:01:25.570Z,72.07
2019-05-10T18:03:57.533Z,72.23
2019-05-10T18:06:28.267Z,71.26
2019-05-10T18:09:00.153Z,71.26
2019-05-10T18:11:36.965Z,71.38
2019-05-10T18:14:12.432Z,69.97
2019-05-10T18:16:48.212Z,69.71
2019-05-10T18:19:19.161Z,70.46
2019-05-10T18:21:48.182Z,70.99
2019-05-10T18:24:23.603Z,71.42
2019-05-10T18:26:56.439Z,71.61
2019-05-10T18:29:26.687Z,71.74
2019-05-10T18:31:58.524Z,71.78
2019-05-10T18:34:33.114Z,71.57
2019-05-10T18:37:04.830Z,71.12
2019-05-10T18:39:35.253Z,71.67
2019-05-10T18:42:08.255Z,71.60
2019-05-10T18:44:38.940Z,71.41
2019-05-10T18:47:09.921Z,71.99
2019-05-10T18:49:44.035Z,72.20
2019-05-10T18:52:14.610Z,72.31
2019-05-10T18:54:46.209Z,72.81
2019-05-10T18:57:19.217Z,73.91
2019-05-10T18:59:51.875Z,74.34
2019-05-10T19:02:23.737Z,75.38
2019-05-10T19:04:54.342Z,75.41
2019-05-10T19:07:29.785Z,75.66
2019-05-10T19:10:00.138Z,75.83
2019-05-10T19:12:35.000Z,74.91
2019-05-10T19:15:09.134Z,76.67
2019-05-10T19:17:45.467Z,77.43
2019-05-10T19:20:16.457Z,73.52
2019-05-10T19:22:46.197Z,74.26
2019-05-10T19:25:16.725Z,74.56
2019-05-10T19:27:50.767Z,74.05
2019-05-10T19:30:22.393Z,73.42
2019-05-10T19:32:56.439Z,74.48
2019-05-10T19:35:24.051Z,75.39
2019-05-10T19:37:54.642Z,75.85
2019-05-10T19:40:25.320Z,76.53
2019-05-10T19:42:56.637Z,75.27
2019-05-10T19:45:30.785Z,75.92
2019-05-10T19:48:01.420Z,75.67
2019-05-10T19:50:33.188Z,74.11
2019-05-10T19:53:05.485Z,73.65
2019-05-10T19:55:35.974Z,73.81
2019-05-10T19:58:06.817Z,76.67
2019-05-10T20:00:39.191Z,77.17
2019-05-10T20:03:10.882Z,76.33
2019-05-10T20:05:41.536Z,77.62
2019-05-10T20:08:12.416Z,78.31
2019-05-10T20:10:43.227Z,79.43
2019-05-10T20:13:17.647Z,80.36
2019-05-10T20:15:48.261Z,80.12
2019-05-10T20:18:20.770Z,79.32
2019-05-10T20:20:51.074Z,77.65
2019-05-10T20:23:23.688Z,76.37
2019-05-10T20:25:54.301Z,76.48
2019-05-10T20:28:25.171Z,76.38
2019-05-10T20:30:56.077Z,76.90
2019-05-10T20:33:26.460Z,75.59
2019-05-10T20:35:57.099Z,76.34
2019-05-10T20:38:30.248Z,76.71
2019-05-10T20:41:07.312Z,77.40
2019-05-10T20:43:37.645Z,77.05
2019-05-10T20:46:11.228Z,76.74
2019-05-10T20:48:42.242Z,76.43
2019-05-10T20:51:12.914Z,77.02
2019-05-10T20:53:43.232Z,76.93
2019-05-10T20:56:13.622Z,77.54
2019-05-10T20:58:44.141Z,78.24
2019-05-10T21:01:16.364Z,79.58
2019-05-10T21:03:46.946Z,79.89
2019-05-10T21:06:17.475Z,80.13
2019-05-10T21:08:48.219Z,80.89
2019-05-10T21:11:20.466Z,80.83
2019-05-10T21:13:51.184Z,81.92
2019-05-10T21:16:21.753Z,81.28
2019-05-10T21:18:52.363Z,81.61
2019-05-10T21:21:23.012Z,80.73
2019-05-10T21:23:53.530Z,81.43
2019-05-10T21:26:24.050Z,81.63
2019-05-10T21:28:54.580Z,81.94
2019-05-10T21:31:25.257Z,81.89
2019-05-10T21:34:08.659Z,81.90
2019-05-10T21:36:28.021Z,82.55
2019-05-10T21:38:58.746Z,81.76
2019-05-10T21:41:29.374Z,81.98
2019-05-10T21:44:00.161Z,81.60
2019-05-10T21:46:30.402Z,81.65
2019-05-10T21:49:00.968Z,81.27
2019-05-10T21:51:31.475Z,81.45
2019-05-10T21:54:02.119Z,82.04
2019-05-10T21:56:35.517Z,81.87
2019-05-10T21:59:04.619Z,82.40
2019-05-10T22:01:35.249Z,81.86
2019-05-10T22:04:07.253Z,81.70
2019-05-10T22:06:37.926Z,81.51
2019-05-10T22:09:10.312Z,81.66
2019-05-10T22:11:41.771Z,82.08
2019-05-10T22:14:12.236Z,82.31
2019-05-10T22:16:42.616Z,82.52
2019-05-10T22:19:13.291Z,82.55
2019-05-10T22:21:43.844Z,83.39
2019-05-10T22:24:14.346Z,83.92
2019-05-10T22:26:44.835Z,84.45
2019-05-10T22:29:15.375Z,84.83
2019-05-10T22:31:45.790Z,84.72
2019-05-10T22:34:16.468Z,84.83
2019-05-10T22:36:46.837Z,84.34
2019-05-10T22:39:17.377Z,84.00
2019-05-10T22:41:47.814Z,83.44
2019-05-10T22:44:19.456Z,83.03
2019-05-10T22:46:49.974Z,82.70
2019-05-10T22:49:20.516Z,82.95
2019-05-10T22:51:51.068Z,83.33
2019-05-10T22:54:21.687Z,82.98
2019-05-10T22:56:53.540Z,83.88
2019-05-10T22:59:24.268Z,83.76
2019-05-10T23:01:55.443Z,83.74
2019-05-10T23:04:26.586Z,83.80
2019-05-10T23:06:57.202Z,84.10
2019-05-10T23:09:27.868Z,84.52
2019-05-10T23:11:58.141Z,84.74
2019-05-10T23:14:28.609Z,84.97
2019-05-10T23:16:58.911Z,84.57
2019-05-10T23:19:29.430Z,84.32
2019-05-10T23:21:59.952Z,84.45
2019-05-10T23:24:38.393Z,84.84
2019-05-10T23:27:08.943Z,84.72
2019-05-10T23:29:39.307Z,84.84
2019-05-10T23:32:09.921Z,85.45
2019-05-10T23:34:40.291Z,85.98
2019-05-10T23:37:10.715Z,86.53
2019-05-10T23:39:41.600Z,86.83
2019-05-10T23:42:12.087Z,86.54
2019-05-10T23:44:42.586Z,86.55
2019-05-10T23:47:13.272Z,86.69
2019-05-10T23:49:43.850Z,86.92
2019-05-10T23:52:14.313Z,86.64
2019-05-10T23:54:44.822Z,86.14
2019-05-10T23:57:15.486Z,85.84
2019-05-10T23:59:46.269Z,86.27
